createdAt,value
2023-01-03T00:02:06.308Z,2.78
2023-01-03T00:04:33.060Z,2.79
2023-01-03T00:06:59.708Z,2.69
2023-01-03T00:09:26.645Z,2.70
2023-01-03T00:12:12.973Z,2.68
2023-01-03T00:14:42.519Z,2.79
2023-01-03T00:17:10.277Z,2.84
2023-01-03T00:19:40.570Z,2.83
2023-01-03T00:22:07.613Z,2.79
2023-01-03T00:24:34.233Z,2.92
2023-01-03T00:27:00.927Z,2.93
2023-01-03T00:29:27.735Z,3.00
2023-01-03T00:31:54.627Z,3.04
2023-01-03T00:34:21.408Z,3.00
2023-01-03T00:36:48.333Z,2.97
2023-01-03T00:39:15.129Z,2.86
2023-01-03T00:41:42.488Z,2.81
2023-01-03T00:44:09.177Z,2.65
2023-01-03T00:46:35.987Z,2.49
2023-01-03T00:49:03.880Z,2.48
2023-01-03T00:51:33.073Z,2.43
2023-01-03T00:54:01.510Z,2.38
2023-01-03T00:56:33.236Z,2.42
2023-01-03T00:59:00.382Z,2.40
2023-01-03T01:01:33.869Z,2.37
2023-01-03T01:04:11.889Z,2.30
2023-01-03T01:06:50.689Z,2.25
2023-01-03T01:09:23.645Z,2.25
2023-01-03T01:11:51.196Z,2.24
2023-01-03T01:14:21.047Z,2.20
2023-01-03T01:16:53.317Z,2.02
2023-01-03T01:19:21.622Z,1.89
2023-01-03T01:21:48.943Z,1.61
2023-01-03T01:24:17.926Z,1.57
2023-01-03T01:26:46.327Z,1.69
2023-01-03T01:29:14.208Z,1.63
2023-01-03T01:31:41.968Z,1.59
2023-01-03T01:34:09.186Z,1.51
2023-01-03T01:36:37.772Z,1.57
2023-01-03T01:39:08.323Z,1.52
2023-01-03T01:41:56.201Z,1.41
2023-01-03T01:44:47.313Z,1.35
2023-01-03T01:47:32.695Z,1.38
2023-01-03T01:50:29.680Z,1.29
2023-01-03T01:53:01.276Z,1.18
2023-01-03T01:55:37.255Z,1.22
2023-01-03T01:58:06.298Z,1.16
2023-01-03T02:00:33.482Z,1.08
2023-01-03T02:03:00.711Z,1.09
2023-01-03T02:05:28.542Z,1.05
2023-01-03T02:07:55.834Z,1.06
2023-01-03T02:10:58.101Z,1.04
2023-01-03T02:13:38.524Z,0.78
2023-01-03T02:16:14.238Z,0.78
2023-01-03T02:18:51.474Z,0.69
2023-01-03T02:21:37.801Z,0.67
2023-01-03T02:24:23.236Z,0.59
2023-01-03T02:26:59.106Z,0.58
2023-01-03T02:29:46.024Z,0.42
2023-01-03T02:32:36.714Z,0.39
2023-01-03T02:35:28.259Z,0.45
2023-01-03T02:38:21.853Z,0.45
2023-01-03T02:41:25.473Z,0.40
2023-01-03T02:44:11.325Z,0.46
2023-01-03T02:46:42.605Z,0.38
2023-01-03T02:49:15.882Z,0.37
2023-01-03T02:51:57.688Z,0.36
2023-01-03T02:54:47.067Z,0.27
2023-01-03T02:57:22.321Z,0.24
2023-01-03T02:59:57.743Z,0.25
2023-01-03T03:02:32.434Z,0.21
2023-01-03T03:05:02.723Z,0.30
2023-01-03T03:07:36.833Z,0.39
2023-01-03T03:10:23.275Z,0.37
2023-01-03T03:13:13.223Z,0.42
2023-01-03T03:15:52.172Z,0.29
2023-01-03T03:18:40.298Z,0.18
2023-01-03T03:21:28.940Z,0.04
2023-01-03T03:24:20.223Z,0.06
2023-01-03T03:26:49.976Z,-0.05
2023-01-03T03:29:18.844Z,0.06
2023-01-03T03:31:50.800Z,0.14
2023-01-03T03:34:32.626Z,0.12
2023-01-03T03:37:20.934Z,-0.02
2023-01-03T03:40:07.003Z,-0.05
2023-01-03T03:43:00.976Z,-0.07
2023-01-03T03:45:39.705Z,-0.27
2023-01-03T03:48:14.006Z,-0.48
2023-01-03T03:50:46.860Z,-0.68
2023-01-03T03:53:16.205Z,-0.88
2023-01-03T03:55:56.779Z,-0.77
2023-01-03T03:58:39.016Z,-0.79
2023-01-03T04:01:07.613Z,-0.68
2023-01-03T04:03:37.165Z,-0.72
2023-01-03T04:06:10.809Z,-0.60
2023-01-03T04:08:37.511Z,-0.62
2023-01-03T04:11:07.742Z,-0.61
2023-01-03T04:13:36.415Z,-0.60
2023-01-03T04:16:04.332Z,-0.56
2023-01-03T04:18:31.548Z,-0.58
2023-01-03T04:20:58.345Z,-0.67
2023-01-03T04:23:25.354Z,-0.70
2023-01-03T04:25:52.175Z,-0.79
2023-01-03T04:28:19.395Z,-0.90
2023-01-03T04:30:47.094Z,-1.01
2023-01-03T04:33:14.285Z,-1.12
2023-01-03T04:35:41.153Z,-1.32
2023-01-03T04:38:09.432Z,-1.41
2023-01-03T04:40:38.678Z,-1.37
2023-01-03T04:43:24.053Z,-1.53
2023-01-03T04:45:51.511Z,-1.30
2023-01-03T04:48:18.171Z,-1.26
2023-01-03T04:50:56.110Z,-1.47
2023-01-03T04:53:24.684Z,-1.62
2023-01-03T04:55:52.802Z,-1.59
2023-01-03T04:58:20.495Z,-1.50
2023-01-03T05:00:47.460Z,-1.37
2023-01-03T05:03:14.641Z,-1.45
2023-01-03T05:05:41.870Z,-1.38
2023-01-03T05:08:10.865Z,-1.27
2023-01-03T05:10:41.392Z,-1.35
2023-01-03T05:13:08.851Z,-1.59
2023-01-03T05:15:38.657Z,-1.75
2023-01-03T05:18:05.786Z,-1.82
2023-01-03T05:20:51.073Z,-1.62
2023-01-03T05:23:37.260Z,-1.59
2023-01-03T05:26:19.406Z,-1.67
2023-01-03T05:28:49.953Z,-1.46
2023-01-03T05:31:16.647Z,-1.49
2023-01-03T05:33:43.417Z,-1.63
2023-01-03T05:36:10.530Z,-1.85
2023-01-03T05:38:38.206Z,-1.97
2023-01-03T05:41:05.564Z,-1.94
2023-01-03T05:43:32.230Z,-1.89
2023-01-03T05:45:58.889Z,-1.77
2023-01-03T05:48:25.625Z,-1.76
2023-01-03T05:50:52.344Z,-1.92
2023-01-03T05:53:18.999Z,-1.97
2023-01-03T05:55:45.580Z,-2.00
2023-01-03T05:58:13.266Z,-1.91
2023-01-03T06:00:40.196Z,-1.82
2023-01-03T06:03:07.776Z,-1.89
2023-01-03T06:05:34.575Z,-1.84
2023-01-03T06:08:02.398Z,-1.93
2023-01-03T06:10:29.139Z,-1.84
2023-01-03T06:12:56.161Z,-2.05
2023-01-03T06:15:22.855Z,-1.93
2023-01-03T06:17:57.596Z,-1.99
2023-01-03T06:20:26.240Z,-1.78
2023-01-03T06:22:53.624Z,-1.50
2023-01-03T06:25:20.546Z,-1.37
2023-01-03T06:27:47.256Z,-1.44
2023-01-03T06:30:15.794Z,-1.38
2023-01-03T06:32:43.333Z,-1.29
2023-01-03T06:35:10.291Z,-1.22
2023-01-03T06:37:36.923Z,-1.27
2023-01-03T06:40:04.010Z,-1.27
2023-01-03T06:42:45.338Z,-1.28
2023-01-03T06:45:32.621Z,-1.17
2023-01-03T06:48:22.941Z,-0.89
2023-01-03T06:51:08.104Z,-0.87
2023-01-03T06:53:39.689Z,-1.13
2023-01-03T06:56:07.181Z,-0.94
2023-01-03T06:58:34.098Z,-0.87
2023-01-03T07:01:03.873Z,-1.08
2023-01-03T07:03:31.903Z,-0.99
2023-01-03T07:05:58.801Z,-1.08
2023-01-03T07:08:25.394Z,-1.16
2023-01-03T07:10:52.152Z,-1.24
2023-01-03T07:13:37.341Z,-1.18
2023-01-03T07:16:04.065Z,-1.29
2023-01-03T07:18:31.606Z,-1.24
2023-01-03T07:20:58.285Z,-1.20
2023-01-03T07:23:25.004Z,-1.18
2023-01-03T07:25:55.411Z,-1.84
2023-01-03T07:28:22.198Z,-1.29
2023-01-03T07:30:49.080Z,-1.33
2023-01-03T07:33:17.083Z,-1.10
2023-01-03T07:35:43.783Z,-0.83
2023-01-03T07:38:12.167Z,-0.79
2023-01-03T07:40:39.695Z,-0.46
2023-01-03T07:43:24.908Z,-0.34
2023-01-03T07:45:51.738Z,-0.08
2023-01-03T07:48:18.427Z,0.30
2023-01-03T07:50:45.175Z,0.31
2023-01-03T07:53:16.798Z,0.23
2023-01-03T07:55:45.483Z,0.12
2023-01-03T07:58:12.345Z,0.04
2023-01-03T08:00:39.838Z,-0.07
2023-01-03T08:03:10.879Z,0.07
2023-01-03T08:05:38.585Z,0.07
2023-01-03T08:08:06.278Z,0.12
2023-01-03T08:10:53.293Z,0.35
2023-01-03T08:13:20.148Z,0.70
2023-01-03T08:15:51.852Z,1.03
2023-01-03T08:18:26.078Z,1.30
2023-01-03T08:20:55.412Z,1.45
2023-01-03T08:23:26.356Z,1.88
2023-01-03T08:26:03.939Z,2.02
2023-01-03T08:28:31.115Z,2.22
2023-01-03T08:31:00.156Z,2.45
2023-01-03T08:33:31.272Z,2.68
2023-01-03T08:36:03.451Z,2.65
2023-01-03T08:38:43.186Z,2.70
2023-01-03T08:41:10.853Z,2.63
2023-01-03T08:43:41.442Z,2.82
2023-01-03T08:46:11.758Z,2.97
2023-01-03T08:48:38.966Z,3.00
2023-01-03T08:51:05.725Z,3.39
2023-01-03T08:53:32.470Z,3.54
2023-01-03T08:55:59.085Z,3.40
2023-01-03T08:58:25.879Z,3.49
2023-01-03T09:00:52.576Z,3.48
2023-01-03T09:03:19.575Z,3.71
2023-01-03T09:05:46.483Z,3.67
2023-01-03T09:08:13.176Z,3.62
2023-01-03T09:10:47.070Z,3.87
2023-01-03T09:13:14.463Z,3.91
2023-01-03T09:15:41.319Z,3.88
2023-01-03T09:18:08.992Z,3.80
2023-01-03T09:20:35.821Z,3.72
2023-01-03T09:23:02.501Z,3.42
2023-01-03T09:25:34.868Z,3.77
2023-01-03T09:28:03.663Z,3.95
2023-01-03T09:30:30.329Z,4.01
2023-01-03T09:32:57.453Z,4.02
2023-01-03T09:35:24.255Z,3.94
2023-01-03T09:37:51.021Z,4.27
2023-01-03T09:40:17.936Z,4.42
2023-01-03T09:43:03.541Z,4.65
2023-01-03T09:45:34.122Z,4.96
2023-01-03T09:48:03.638Z,5.28
2023-01-03T09:50:50.916Z,5.41
2023-01-03T09:53:42.203Z,5.38
2023-01-03T09:56:31.908Z,5.30
2023-01-03T09:59:20.586Z,5.34
2023-01-03T10:02:25.143Z,5.26
2023-01-03T10:05:13.165Z,5.38
2023-01-03T10:07:55.067Z,5.58
2023-01-03T10:10:46.665Z,5.54
2023-01-03T10:13:35.033Z,5.42
2023-01-03T10:16:14.640Z,5.59
2023-01-03T10:18:57.826Z,5.75
2023-01-03T10:22:01.439Z,6.09
2023-01-03T10:24:37.131Z,6.19
2023-01-03T10:27:25.299Z,6.53
2023-01-03T10:29:56.939Z,6.52
2023-01-03T10:32:57.689Z,6.65
2023-01-03T10:35:30.226Z,6.80
2023-01-03T10:37:58.097Z,6.77
2023-01-03T10:40:47.933Z,7.30
2023-01-03T10:43:31.761Z,7.09
2023-01-03T10:46:02.139Z,7.29
2023-01-03T10:49:08.369Z,7.45
2023-01-03T10:51:42.491Z,7.66
2023-01-03T10:54:26.765Z,7.82
2023-01-03T10:56:53.522Z,7.90
2023-01-03T10:59:33.332Z,8.10
2023-01-03T11:02:02.471Z,8.32
2023-01-03T11:04:31.479Z,7.87
2023-01-03T11:07:09.110Z,8.47
2023-01-03T11:09:52.303Z,8.67
2023-01-03T11:12:41.585Z,8.58
2023-01-03T11:15:17.729Z,8.77
2023-01-03T11:18:04.160Z,8.78
2023-01-03T11:20:42.229Z,8.87
2023-01-03T11:23:18.215Z,9.24
2023-01-03T11:26:02.775Z,9.42
2023-01-03T11:28:45.032Z,9.49
2023-01-03T11:31:33.815Z,9.58
2023-01-03T11:34:08.110Z,9.50
2023-01-03T11:36:52.079Z,9.88
2023-01-03T11:39:24.581Z,9.97
2023-01-03T11:42:03.774Z,10.16
2023-01-03T11:45:07.937Z,10.44
2023-01-03T11:48:06.617Z,10.54
2023-01-03T11:50:53.874Z,10.78
2023-01-03T11:53:34.872Z,10.77
2023-01-03T11:56:27.795Z,10.73
2023-01-03T11:59:14.199Z,10.79
2023-01-03T12:01:55.719Z,11.01
2023-01-03T12:04:22.408Z,11.02
2023-01-03T12:10:00.320Z,11.16
2023-01-03T12:13:10.524Z,11.18
2023-01-03T12:15:58.742Z,11.22
2023-01-03T12:18:38.084Z,11.58
2023-01-03T12:21:11.733Z,11.66
2023-01-03T12:23:48.720Z,11.99
2023-01-03T12:26:16.861Z,12.23
2023-01-03T12:28:55.891Z,12.59
2023-01-03T12:31:26.256Z,12.58
2023-01-03T12:34:20.905Z,12.78
2023-01-03T12:37:13.828Z,13.04
2023-01-03T12:39:46.295Z,13.22
2023-01-03T12:42:31.404Z,13.45
2023-01-03T12:45:18.320Z,13.21
2023-01-03T12:48:07.633Z,13.39
2023-01-03T12:50:48.503Z,13.56
2023-01-03T12:53:42.012Z,13.83
2023-01-03T12:56:25.733Z,14.05
2023-01-03T12:59:21.643Z,14.34
2023-01-03T13:01:59.255Z,14.48
2023-01-03T13:04:40.317Z,14.43
2023-01-03T13:07:15.106Z,14.13
2023-01-03T13:09:48.175Z,14.33
2023-01-03T13:12:19.064Z,13.63
2023-01-03T13:15:15.864Z,13.95
2023-01-03T13:17:49.784Z,14.14
2023-01-03T13:20:32.677Z,14.38
2023-01-03T13:23:01.163Z,14.11
2023-01-03T13:25:40.246Z,14.16
2023-01-03T13:28:31.429Z,14.21
2023-01-03T13:31:19.129Z,14.23
2023-01-03T13:33:49.044Z,14.35
2023-01-03T13:36:18.646Z,14.47
2023-01-03T13:38:46.062Z,14.44
2023-01-03T13:41:31.263Z,14.36
2023-01-03T13:44:16.026Z,14.61
2023-01-03T13:46:43.286Z,14.84
2023-01-03T13:49:19.177Z,14.73
2023-01-03T13:51:51.896Z,14.85
2023-01-03T13:54:18.792Z,14.80
2023-01-03T13:56:45.354Z,14.69
2023-01-03T13:59:15.146Z,14.60
2023-01-03T14:02:06.451Z,14.46
2023-01-03T14:04:54.764Z,14.37
2023-01-03T14:07:55.260Z,14.15
2023-01-03T14:10:59.560Z,14.04
2023-01-03T14:13:53.423Z,13.98
2023-01-03T14:16:39.871Z,13.91
2023-01-03T14:19:25.726Z,13.66
2023-01-03T14:22:28.148Z,13.56
2023-01-03T14:24:57.684Z,13.44
2023-01-03T14:27:32.298Z,13.34
2023-01-03T14:29:59.183Z,13.29
2023-01-03T14:32:34.471Z,13.15
2023-01-03T14:35:02.561Z,13.12
2023-01-03T14:37:30.349Z,13.02
2023-01-03T14:40:03.742Z,12.98
2023-01-03T14:42:30.554Z,12.79
2023-01-03T14:44:58.123Z,12.77
2023-01-03T14:47:37.905Z,12.39
2023-01-03T14:50:07.500Z,12.29
2023-01-03T14:52:37.915Z,12.14
2023-01-03T14:55:08.535Z,12.09
2023-01-03T14:57:39.631Z,11.89
2023-01-03T15:00:08.661Z,11.73
2023-01-03T15:02:40.884Z,11.53
2023-01-03T15:05:23.473Z,11.56
2023-01-03T15:07:49.983Z,11.60
2023-01-03T15:10:21.809Z,11.38
2023-01-03T15:13:00.749Z,11.31
2023-01-03T15:15:40.229Z,11.31
2023-01-03T15:18:09.666Z,11.27
2023-01-03T15:20:40.564Z,11.21
2023-01-03T15:23:08.322Z,11.14
2023-01-03T15:25:41.122Z,11.13
2023-01-03T15:28:22.476Z,10.93
2023-01-03T15:30:50.695Z,10.88
2023-01-03T15:33:24.871Z,10.87
2023-01-03T15:35:54.355Z,10.82
2023-01-03T15:38:49.000Z,10.74
2023-01-03T15:41:38.410Z,10.65
2023-01-03T15:44:06.847Z,10.44
2023-01-03T15:46:33.757Z,10.26
2023-01-03T15:49:02.514Z,10.21
2023-01-03T15:51:29.226Z,10.38
2023-01-03T15:53:55.908Z,10.55
2023-01-03T15:56:35.185Z,10.47
2023-01-03T15:59:07.091Z,10.49
2023-01-03T16:01:33.962Z,10.57
2023-01-03T16:04:01.016Z,10.53
2023-01-03T16:06:27.790Z,10.69
2023-01-03T16:08:54.423Z,10.72
2023-01-03T16:11:33.315Z,10.70
2023-01-03T16:14:03.713Z,10.69
2023-01-03T16:16:40.746Z,10.71
2023-01-03T16:19:15.009Z,10.58
2023-01-03T16:21:51.429Z,10.60
2023-01-03T16:24:28.554Z,10.49
2023-01-03T16:26:56.994Z,10.42
2023-01-03T16:29:23.728Z,10.62
2023-01-03T16:31:50.805Z,10.54
2023-01-03T16:34:20.974Z,10.45
2023-01-03T16:36:48.483Z,10.39
2023-01-03T16:39:23.171Z,10.33
2023-01-03T16:42:09.731Z,10.25
2023-01-03T16:44:37.949Z,10.16
2023-01-03T16:47:11.893Z,10.09
2023-01-03T16:49:38.865Z,9.95
2023-01-03T16:52:06.411Z,9.91
2023-01-03T16:54:34.558Z,9.90
2023-01-03T16:57:01.125Z,9.80
2023-01-03T16:59:27.833Z,9.92
2023-01-03T17:01:54.631Z,10.02
2023-01-03T17:04:21.591Z,10.02
2023-01-03T17:06:48.321Z,10.05
2023-01-03T17:09:22.735Z,10.10
2023-01-03T17:11:49.452Z,10.13
2023-01-03T17:14:21.716Z,10.03
2023-01-03T17:16:48.921Z,10.05
2023-01-03T17:19:52.205Z,9.91
2023-01-03T17:22:05.295Z,9.94
2023-01-03T17:24:32.036Z,9.84
2023-01-03T17:27:04.475Z,9.67
2023-01-03T17:29:31.734Z,9.81
2023-01-03T17:31:58.656Z,9.71
2023-01-03T17:34:26.771Z,9.76
2023-01-03T17:36:54.940Z,9.69
2023-01-03T17:39:22.530Z,9.88
2023-01-03T17:42:07.712Z,9.90
2023-01-03T17:44:34.297Z,9.62
2023-01-03T17:47:33.924Z,9.85
2023-01-03T17:50:01.234Z,9.72
2023-01-03T17:52:33.925Z,8.84
2023-01-03T17:55:00.962Z,9.63
2023-01-03T17:57:28.161Z,9.21
2023-01-03T17:59:54.896Z,9.57
2023-01-03T18:02:24.607Z,9.57
2023-01-03T18:07:38.871Z,9.51
2023-01-03T18:10:07.636Z,9.45
2023-01-03T18:12:34.494Z,9.43
2023-01-03T18:15:01.205Z,9.39
2023-01-03T18:17:31.166Z,9.42
2023-01-03T18:19:59.016Z,9.39
2023-01-03T18:22:26.189Z,9.25
2023-01-03T18:24:54.264Z,9.37
2023-01-03T18:27:22.932Z,9.25
2023-01-03T18:29:49.748Z,9.36
2023-01-03T18:32:30.295Z,9.37
2023-01-03T18:34:58.167Z,9.30
2023-01-03T18:37:30.345Z,9.30
2023-01-03T18:39:57.033Z,9.20
2023-01-03T18:42:42.133Z,9.30
2023-01-03T18:45:12.276Z,9.28
2023-01-03T18:47:39.226Z,8.93
2023-01-03T18:50:06.880Z,9.10
2023-01-03T18:52:37.831Z,8.88
2023-01-03T18:55:07.224Z,8.77
2023-01-03T18:57:34.342Z,8.84
2023-01-03T19:00:03.403Z,8.33
2023-01-03T19:02:30.633Z,9.03
2023-01-03T19:04:57.373Z,8.97
2023-01-03T19:07:32.996Z,8.84
2023-01-03T19:10:00.475Z,8.99
2023-01-03T19:12:27.592Z,9.08
2023-01-03T19:14:55.857Z,9.05
2023-01-03T19:17:23.357Z,8.90
2023-01-03T19:19:52.084Z,9.10
2023-01-03T19:22:40.210Z,9.08
2023-01-03T19:25:13.851Z,9.06
2023-01-03T19:27:45.201Z,9.15
2023-01-03T19:30:21.818Z,9.15
2023-01-03T19:32:53.139Z,9.14
2023-01-03T19:35:20.450Z,9.13
2023-01-03T19:37:47.267Z,9.13
2023-01-03T19:40:16.084Z,9.05
2023-01-03T19:42:50.950Z,9.04
2023-01-03T19:45:24.509Z,8.98
2023-01-03T19:47:51.208Z,9.01
2023-01-03T19:50:24.278Z,8.68
2023-01-03T19:52:51.889Z,9.10
2023-01-03T19:55:18.591Z,9.03
2023-01-03T19:57:48.741Z,8.96
2023-01-03T20:00:18.637Z,8.98
2023-01-03T20:02:45.848Z,8.96
2023-01-03T20:05:20.270Z,8.96
2023-01-03T20:07:47.873Z,8.90
2023-01-03T20:10:38.945Z,8.93
2023-01-03T20:13:06.123Z,8.82
2023-01-03T20:15:36.771Z,8.79
2023-01-03T20:18:03.972Z,8.76
2023-01-03T20:20:33.015Z,8.63
2023-01-03T20:23:05.629Z,8.63
2023-01-03T20:25:34.901Z,8.44
2023-01-03T20:28:01.822Z,8.38
2023-01-03T20:30:31.429Z,8.42
2023-01-03T20:32:58.533Z,8.29
2023-01-03T20:38:20.919Z,8.43
2023-01-03T20:40:47.693Z,8.38
2023-01-03T20:43:15.428Z,8.44
2023-01-03T20:45:42.158Z,8.44
2023-01-03T20:48:18.033Z,8.41
2023-01-03T20:50:50.364Z,8.17
2023-01-03T20:53:22.325Z,8.47
2023-01-03T20:55:50.036Z,8.73
2023-01-03T20:58:21.182Z,8.52
2023-01-03T21:00:48.363Z,8.56
2023-01-03T21:03:15.246Z,8.74
2023-01-03T21:05:42.287Z,8.74
2023-01-03T21:08:33.195Z,8.64
2023-01-03T21:11:00.170Z,8.66
2023-01-03T21:13:26.796Z,8.56
2023-01-03T21:15:53.621Z,8.67
2023-01-03T21:18:20.335Z,8.34
2023-01-03T21:20:47.190Z,8.64
2023-01-03T21:23:18.555Z,8.65
2023-01-03T21:25:45.715Z,8.68
2023-01-03T21:28:12.927Z,8.53
2023-01-03T21:30:40.798Z,8.17
2023-01-03T21:33:16.310Z,8.67
2023-01-03T21:35:43.169Z,8.62
2023-01-03T21:38:10.170Z,8.58
2023-01-03T21:40:37.095Z,8.61
2023-01-03T21:43:05.223Z,8.55
2023-01-03T21:45:35.297Z,8.47
2023-01-03T21:48:04.465Z,8.33
2023-01-03T21:50:32.849Z,8.37
2023-01-03T21:52:59.643Z,8.17
2023-01-03T21:55:26.604Z,8.23
2023-01-03T21:57:57.237Z,8.23
2023-01-03T22:00:24.045Z,8.15
2023-01-03T22:03:10.158Z,8.17
2023-01-03T22:05:36.833Z,8.32
2023-01-03T22:08:03.875Z,8.27
2023-01-03T22:10:31.245Z,8.37
2023-01-03T22:13:01.267Z,8.37
2023-01-03T22:15:28.300Z,8.35
2023-01-03T22:17:55.574Z,8.36
2023-01-03T22:20:24.851Z,8.46
2023-01-03T22:22:51.788Z,8.30
2023-01-03T22:25:22.538Z,8.30
2023-01-03T22:27:49.875Z,8.39
2023-01-03T22:30:19.455Z,8.38
2023-01-03T22:32:47.364Z,8.45
2023-01-03T22:35:15.525Z,8.33
2023-01-03T22:37:42.400Z,8.38
2023-01-03T22:40:13.125Z,8.41
2023-01-03T22:42:39.902Z,8.49
2023-01-03T22:45:08.123Z,8.39
2023-01-03T22:47:36.533Z,8.34
2023-01-03T22:50:04.713Z,8.41
2023-01-03T22:52:31.426Z,8.46
2023-01-03T22:54:58.268Z,8.40
2023-01-03T22:57:25.029Z,8.40
2023-01-03T22:59:51.772Z,8.14
2023-01-03T23:02:24.648Z,8.29
2023-01-03T23:04:54.974Z,8.41
2023-01-03T23:07:21.678Z,8.43
2023-01-03T23:09:48.443Z,8.45
2023-01-03T23:12:33.591Z,8.44
2023-01-03T23:15:00.244Z,8.33
2023-01-03T23:17:45.322Z,8.38
2023-01-03T23:20:12.276Z,8.41
2023-01-03T23:22:38.998Z,8.37
2023-01-03T23:25:06.029Z,8.36
2023-01-03T23:27:32.669Z,8.42
2023-01-03T23:29:59.242Z,8.44
2023-01-03T23:32:25.993Z,8.29
2023-01-03T23:34:52.597Z,8.31
2023-01-03T23:37:19.248Z,8.45
2023-01-03T23:39:45.879Z,8.45
2023-01-03T23:42:12.695Z,8.44
2023-01-03T23:44:39.353Z,8.48
2023-01-03T23:47:11.425Z,8.38
2023-01-03T23:49:39.017Z,8.48
2023-01-03T23:52:05.623Z,8.44
2023-01-03T23:54:32.553Z,8.60
2023-01-03T23:56:59.283Z,8.50
2023-01-03T23:59:25.959Z,8.65
